Time;durP1;ratioP1;P1;durP2;ratioP2;P2;SDS_P1;SDS_P2;PMS_P1;PMS_P2;Temp;Humidity;BMP_temperature;BMP_pressure;BME280_temperature;BME280_humidity;BME280_pressure;Samples;Min_cycle;Max_cycle;Signal;HPM_P1;HPM_P2
2022/10/28 00:01:03;;;;;;;17.48;7.60;;;16.30;99.90;;;;;;5139944;27;20034;-63
2022/10/28 00:03:29;;;;;;;15.18;7.35;;;16.40;99.90;;;;;;5151731;27;20114;-62
2022/10/28 00:06:01;;;;;;;12.18;6.68;;;16.40;99.90;;;;;;5151845;27;20116;-63
2022/10/28 00:08:27;;;;;;;11.57;7.00;;;16.40;99.90;;;;;;5151855;27;20106;-64
2022/10/28 00:11:07;;;;;;;12.50;7.00;;;16.40;99.90;;;;;;5135275;27;20526;-63
2022/10/28 00:13:33;;;;;;;12.98;7.15;;;16.40;99.90;;;;;;5145476;27;20062;-63
2022/10/28 00:16:10;;;;;;;16.98;7.93;;;16.40;99.90;;;;;;5143336;27;20039;-63
2022/10/28 00:18:37;;;;;;;12.90;7.78;;;16.30;99.90;;;;;;5150396;27;20070;-63
2022/10/28 00:21:11;;;;;;;18.20;8.02;;;16.30;99.90;;;;;;5138221;27;20114;-62
2022/10/28 00:23:37;;;;;;;17.10;8.38;;;16.30;99.90;;;;;;5158160;27;20045;-66
2022/10/28 00:26:04;;;;;;;15.60;8.50;;;16.30;99.90;;;;;;5159260;27;20035;-63
2022/10/28 00:28:30;;;;;;;15.13;8.35;;;16.20;99.90;;;;;;5158825;27;20125;-63
2022/10/28 00:31:01;;;;;;;14.43;8.15;;;16.20;99.90;;;;;;5135535;27;20162;-63
2022/10/28 00:33:26;;;;;;;13.05;8.13;;;16.20;99.90;;;;;;5158429;27;20034;-64
2022/10/28 00:35:52;;;;;;;14.13;8.32;;;16.10;99.90;;;;;;5158782;27;20551;-63
2022/10/28 00:38:17;;;;;;;17.35;8.32;;;16.10;99.90;;;;;;5158478;27;20329;-63
2022/10/28 00:40:43;;;;;;;17.13;8.75;;;16.10;99.90;;;;;;5138115;27;20103;-62
2022/10/28 00:43:11;;;;;;;13.68;8.30;;;16.00;99.90;;;;;;5158392;27;20022;-63
2022/10/28 00:45:37;;;;;;;14.82;8.57;;;16.00;99.90;;;;;;5158791;27;20113;-63
2022/10/28 00:48:03;;;;;;;12.50;8.27;;;15.90;99.90;;;;;;5134710;27;20399;-62
2022/10/28 00:50:46;;;;;;;14.57;8.25;;;15.90;99.90;;;;;;5149505;27;20427;-63
2022/10/28 00:53:19;;;;;;;12.13;7.72;;;15.90;99.90;;;;;;5158143;27;20159;-63
2022/10/28 00:55:46;;;;;;;12.23;8.48;;;15.80;99.90;;;;;;5158458;27;20038;-63
2022/10/28 00:58:13;;;;;;;13.63;8.52;;;15.70;99.90;;;;;;5158510;27;20110;-62
2022/10/28 01:00:39;;;;;;;14.07;8.35;;;15.70;99.90;;;;;;5146243;27;20049;-63
2022/10/28 01:03:05;;;;;;;16.15;9.32;;;15.70;99.90;;;;;;5158021;27;20027;-63
2022/10/28 01:05:34;;;;;;;15.60;8.35;;;15.60;99.90;;;;;;5158415;27;20030;-62
2022/10/28 01:08:02;;;;;;;14.30;8.90;;;15.60;99.90;;;;;;5157941;27;20463;-63
2022/10/28 01:11:04;;;;;;;16.55;9.20;;;15.60;99.90;;;;;;5142757;27;20030;-63
2022/10/28 01:13:52;;;;;;;17.60;9.00;;;15.50;99.90;;;;;;5157676;27;20039;-63
2022/10/28 01:16:25;;;;;;;16.52;9.40;;;15.60;99.90;;;;;;5143526;27;20039;-63
2022/10/28 01:19:28;;;;;;;13.60;9.05;;;15.50;99.90;;;;;;5127054;27;20045;-64
2022/10/28 01:22:13;;;;;;;14.88;9.20;;;15.50;99.90;;;;;;5117387;27;20689;-63
2022/10/28 01:25:22;;;;;;;15.07;9.73;;;15.50;99.90;;;;;;5150544;27;20049;-61
2022/10/28 01:28:15;;;;;;;13.00;9.82;;;15.50;99.90;;;;;;5138864;27;20114;-60
2022/10/28 01:31:15;;;;;;;14.55;9.32;;;15.40;99.90;;;;;;5135847;27;20297;-61
2022/10/28 01:33:50;;;;;;;17.58;9.55;;;15.40;99.90;;;;;;5153900;27;20143;-60
2022/10/28 01:36:33;;;;;;;18.73;9.85;;;15.40;99.90;;;;;;5136461;27;20197;-60
2022/10/28 01:39:10;;;;;;;17.73;9.23;;;15.40;99.90;;;;;;5149719;27;21103;-61
2022/10/28 01:41:54;;;;;;;14.82;9.60;;;15.30;99.90;;;;;;5154533;27;20050;-60
2022/10/28 01:44:19;;;;;;;16.55;10.00;;;15.40;99.90;;;;;;5151604;27;20042;-61
2022/10/28 01:47:03;;;;;;;16.75;10.00;;;15.30;99.90;;;;;;5133999;27;20143;-61
2022/10/28 01:49:42;;;;;;;16.50;9.88;;;15.40;99.90;;;;;;5117460;27;20153;-60
2022/10/28 01:52:13;;;;;;;18.95;9.93;;;15.30;99.90;;;;;;5154505;27;20349;-62
2022/10/28 01:54:41;;;;;;;13.68;9.65;;;15.30;99.90;;;;;;5154001;27;20418;-62
2022/10/28 01:57:10;;;;;;;17.90;10.52;;;15.30;99.90;;;;;;5154441;27;20039;-61
2022/10/28 01:59:38;;;;;;;16.98;9.60;;;15.30;99.90;;;;;;5142667;27;20039;-60
2022/10/28 02:02:04;;;;;;;14.63;9.90;;;15.30;99.90;;;;;;5154399;27;20030;-61
2022/10/28 02:04:29;;;;;;;16.77;9.85;;;15.30;99.90;;;;;;5153783;27;20039;-61
2022/10/28 02:06:56;;;;;;;18.25;10.40;;;15.30;99.90;;;;;;5153972;27;20046;-60
2022/10/28 02:09:55;;;;;;;15.95;10.02;;;15.30;99.90;;;;;;5141563;27;20801;-61
2022/10/28 02:12:48;;;;;;;15.25;10.45;;;15.30;99.90;;;;;;5103865;27;20087;-61
2022/10/28 02:15:37;;;;;;;19.17;10.25;;;15.20;99.90;;;;;;5139879;27;20038;-60
2022/10/28 02:18:12;;;;;;;18.25;10.73;;;15.20;99.90;;;;;;5153653;27;20130;-61
2022/10/28 02:21:07;;;;;;;16.48;10.20;;;15.20;99.90;;;;;;5135861;27;20442;-62
2022/10/28 02:23:43;;;;;;;18.70;10.38;;;15.20;99.90;;;;;;5152471;27;20145;-61
2022/10/28 02:26:23;;;;;;;18.00;10.50;;;15.20;99.90;;;;;;5154000;27;20174;-61
2022/10/28 02:28:53;;;;;;;16.15;10.43;;;15.20;99.90;;;;;;5151283;27;20065;-61
2022/10/28 02:31:27;;;;;;;17.45;10.38;;;15.20;99.90;;;;;;5136379;27;20054;-61
2022/10/28 02:33:58;;;;;;;14.85;10.23;;;15.20;99.90;;;;;;5153503;27;20118;-61
2022/10/28 02:36:26;;;;;;;19.08;10.52;;;15.10;99.90;;;;;;5153658;27;20137;-60
2022/10/28 02:38:55;;;;;;;19.20;10.27;;;15.10;99.90;;;;;;5145936;27;20049;-61
2022/10/28 02:41:30;;;;;;;16.05;10.45;;;15.10;99.90;;;;;;5124891;27;20046;-60
2022/10/28 02:44:01;;;;;;;16.92;11.23;;;15.10;99.90;;;;;;5152191;27;20030;-60
2022/10/28 02:46:30;;;;;;;17.48;10.88;;;15.10;99.90;;;;;;5153386;27;20027;-65
2022/10/28 02:49:03;;;;;;;13.15;11.45;;;15.10;99.90;;;;;;5149366;27;20308;-60
2022/10/28 02:51:36;;;;;;;16.55;10.82;;;15.10;99.90;;;;;;5152785;27;20070;-61
2022/10/28 02:54:13;;;;;;;15.52;11.00;;;15.10;99.90;;;;;;5153031;27;20053;-62
2022/10/28 02:56:47;;;;;;;16.85;11.35;;;15.10;99.90;;;;;;5153350;27;20034;-61
2022/10/28 02:59:12;;;;;;;17.10;11.38;;;15.00;99.90;;;;;;5144424;27;20044;-61
2022/10/28 03:01:39;;;;;;;19.13;12.52;;;15.10;99.90;;;;;;5151285;27;20038;-61
2022/10/28 03:04:05;;;;;;;18.33;11.00;;;15.10;99.90;;;;;;5152861;27;20085;-60
2022/10/28 03:06:30;;;;;;;18.40;11.15;;;15.00;99.90;;;;;;5152661;27;20427;-60
2022/10/28 03:08:56;;;;;;;18.23;12.25;;;15.10;99.90;;;;;;5149128;27;20075;-61
2022/10/28 03:11:22;;;;;;;20.05;11.98;;;15.00;99.90;;;;;;5143353;27;20724;-60
2022/10/28 03:13:47;;;;;;;19.05;11.63;;;15.00;99.90;;;;;;5152198;27;20072;-61
2022/10/28 03:16:13;;;;;;;19.15;12.20;;;15.00;99.90;;;;;;5152897;27;20065;-62
2022/10/28 03:18:38;;;;;;;19.92;11.60;;;15.00;99.90;;;;;;5152764;27;20252;-64
2022/10/28 03:21:04;;;;;;;20.85;11.35;;;15.00;99.90;;;;;;5136071;27;20030;-63
2022/10/28 03:23:30;;;;;;;17.13;12.15;;;15.00;99.90;;;;;;5137504;27;20133;-63
2022/10/28 03:25:55;;;;;;;20.63;12.32;;;15.00;99.90;;;;;;5152678;27;20038;-63
2022/10/28 03:28:21;;;;;;;18.10;11.77;;;15.00;99.90;;;;;;5152669;27;20058;-63
2022/10/28 03:30:46;;;;;;;16.63;12.00;;;14.90;99.90;;;;;;5132611;27;20113;-61
2022/10/28 03:33:12;;;;;;;21.10;13.00;;;15.00;99.90;;;;;;5152115;27;20395;-60
2022/10/28 03:35:38;;;;;;;15.55;10.95;;;14.90;99.90;;;;;;5137693;27;20169;-61
2022/10/28 03:38:03;;;;;;;17.70;12.13;;;14.90;99.90;;;;;;5151979;27;20047;-61
2022/10/28 03:40:29;;;;;;;18.25;11.95;;;15.00;99.90;;;;;;5149784;27;20376;-61
2022/10/28 03:42:54;;;;;;;19.17;11.65;;;15.00;99.90;;;;;;5151881;27;20441;-61
2022/10/28 03:45:20;;;;;;;16.15;11.52;;;15.00;99.90;;;;;;5152331;27;20087;-61
2022/10/28 03:47:45;;;;;;;18.33;12.13;;;15.00;99.90;;;;;;5133487;27;20035;-61
2022/10/28 03:50:11;;;;;;;22.13;12.88;;;14.90;99.90;;;;;;5145912;27;20146;-60
2022/10/28 03:52:37;;;;;;;20.85;12.95;;;14.90;99.90;;;;;;5151483;27;20027;-61
2022/10/28 03:55:03;;;;;;;17.65;11.63;;;14.90;99.90;;;;;;5151658;27;20051;-61
2022/10/28 03:57:32;;;;;;;19.50;12.40;;;14.90;99.90;;;;;;5152022;27;20377;-61
2022/10/28 03:59:58;;;;;;;20.15;12.90;;;14.90;99.90;;;;;;5133043;27;20039;-61
2022/10/28 04:02:23;;;;;;;19.35;12.55;;;14.90;99.90;;;;;;5133101;27;20424;-61
2022/10/28 04:04:49;;;;;;;17.83;12.05;;;14.80;99.90;;;;;;5133540;27;20038;-61
2022/10/28 04:07:14;;;;;;;26.92;13.35;;;14.80;99.90;;;;;;5151591;27;20089;-60
2022/10/28 04:09:40;;;;;;;18.75;12.35;;;14.80;99.90;;;;;;5139155;27;20043;-61
2022/10/28 04:12:06;;;;;;;19.35;12.48;;;14.80;99.90;;;;;;5143903;27;20050;-61
2022/10/28 04:14:31;;;;;;;17.33;11.85;;;14.80;99.90;;;;;;5144498;27;20053;-61
2022/10/28 04:16:57;;;;;;;19.55;12.85;;;14.80;99.90;;;;;;5152057;27;20043;-64
2022/10/28 04:19:23;;;;;;;17.83;11.30;;;14.80;99.90;;;;;;5123174;28;20495;-63
2022/10/28 04:21:48;;;;;;;20.88;12.48;;;14.70;99.90;;;;;;5146050;27;20071;-61
2022/10/28 04:24:14;;;;;;;19.23;11.75;;;14.70;99.90;;;;;;5151273;27;20095;-60
2022/10/28 04:26:39;;;;;;;18.30;12.25;;;14.70;99.90;;;;;;5151318;27;20038;-60
2022/10/28 04:29:05;;;;;;;16.17;11.48;;;14.70;99.90;;;;;;5146865;27;20081;-61
2022/10/28 04:31:30;;;;;;;17.45;11.23;;;14.70;99.90;;;;;;5124137;28;20062;-60
2022/10/28 04:33:56;;;;;;;18.45;11.10;;;14.70;99.90;;;;;;5130443;28;20066;-61
2022/10/28 04:36:22;;;;;;;16.33;11.63;;;14.70;99.90;;;;;;5142601;27;20038;-61
2022/10/28 04:38:48;;;;;;;21.27;12.15;;;14.70;99.90;;;;;;5151222;27;20126;-61
2022/10/28 04:41:14;;;;;;;20.52;12.00;;;14.70;99.90;;;;;;5136081;27;20045;-60
2022/10/28 04:43:40;;;;;;;18.92;12.00;;;14.60;99.90;;;;;;5115775;27;20039;-62
2022/10/28 04:46:05;;;;;;;17.42;10.85;;;14.70;99.90;;;;;;5151732;27;20121;-63
2022/10/28 04:48:32;;;;;;;16.02;10.85;;;14.70;99.90;;;;;;5133223;27;20074;-63
2022/10/28 04:50:57;;;;;;;16.42;11.20;;;14.70;99.90;;;;;;5133001;27;20464;-61
2022/10/28 04:53:23;;;;;;;21.30;10.85;;;14.70;99.90;;;;;;5151379;27;20043;-63
2022/10/28 04:55:49;;;;;;;18.83;10.82;;;14.70;99.90;;;;;;5141419;27;20463;-63
2022/10/28 04:58:14;;;;;;;17.30;10.65;;;14.70;99.90;;;;;;5116766;27;20050;-63
2022/10/28 05:00:40;;;;;;;18.00;10.93;;;14.70;99.90;;;;;;5116624;28;20471;-63
2022/10/28 05:03:05;;;;;;;17.33;10.50;;;14.70;99.90;;;;;;5112922;28;20041;-63
2022/10/28 05:05:31;;;;;;;15.50;10.00;;;14.70;99.90;;;;;;5115195;28;20037;-63
2022/10/28 05:07:57;;;;;;;22.20;10.73;;;14.70;99.90;;;;;;5132903;27;20039;-63
2022/10/28 05:10:22;;;;;;;17.98;10.27;;;14.70;99.90;;;;;;5129069;27;20031;-63
2022/10/28 05:12:48;;;;;;;15.95;10.38;;;14.70;99.90;;;;;;5134016;27;20099;-63
2022/10/28 05:15:14;;;;;;;18.98;11.07;;;14.70;99.90;;;;;;5134055;27;20123;-64
2022/10/28 05:17:44;;;;;;;20.00;10.18;;;14.70;99.90;;;;;;5138118;27;20091;-63
2022/10/28 05:20:11;;;;;;;18.08;10.32;;;14.70;99.90;;;;;;5128672;27;20043;-63
2022/10/28 05:22:37;;;;;;;15.73;10.00;;;14.70;99.90;;;;;;5120308;27;20042;-64
2022/10/28 05:25:04;;;;;;;16.48;10.18;;;14.80;99.90;;;;;;5133623;27;20031;-64
2022/10/28 05:27:29;;;;;;;16.02;9.35;;;14.70;99.90;;;;;;5116024;27;20333;-64
2022/10/28 05:29:55;;;;;;;13.35;9.00;;;14.70;99.90;;;;;;5132850;27;20042;-64
2022/10/28 05:32:20;;;;;;;17.20;9.82;;;14.80;99.90;;;;;;5134004;27;20043;-63
2022/10/28 05:34:46;;;;;;;16.98;8.93;;;14.80;99.90;;;;;;5134151;27;20512;-64
2022/10/28 05:37:11;;;;;;;19.38;9.73;;;14.80;99.90;;;;;;5134063;27;20313;-65
2022/10/28 05:39:37;;;;;;;16.40;9.00;;;14.80;99.90;;;;;;5147456;27;20058;-64
2022/10/28 05:42:03;;;;;;;13.73;8.63;;;14.80;99.90;;;;;;5130262;27;20031;-63
2022/10/28 05:44:28;;;;;;;16.27;8.82;;;14.80;99.90;;;;;;5133526;27;20058;-62
2022/10/28 05:46:55;;;;;;;14.85;8.55;;;14.90;99.90;;;;;;5132372;27;20135;-65
2022/10/28 05:49:21;;;;;;;17.10;8.90;;;14.80;99.90;;;;;;5115361;27;20044;-63
2022/10/28 05:51:47;;;;;;;14.13;7.97;;;14.90;99.90;;;;;;5102514;27;20363;-62
2022/10/28 05:54:12;;;;;;;16.20;8.75;;;14.80;99.90;;;;;;5131216;27;20047;-61
2022/10/28 05:56:38;;;;;;;15.02;8.35;;;14.80;99.90;;;;;;5132901;27;20035;-63
2022/10/28 05:59:03;;;;;;;16.38;8.27;;;14.80;99.90;;;;;;5132152;27;20075;-61
2022/10/28 06:01:29;;;;;;;16.08;9.15;;;14.80;99.90;;;;;;5120684;27;20035;-64
2022/10/28 06:03:55;;;;;;;17.10;9.23;;;14.80;99.90;;;;;;5112583;27;20035;-66
2022/10/28 06:06:20;;;;;;;17.10;9.40;;;14.90;99.90;;;;;;5112535;27;20410;-63
2022/10/28 06:08:46;;;;;;;13.10;8.63;;;14.80;99.90;;;;;;5111956;28;20050;-64
2022/10/28 06:11:12;;;;;;;15.27;8.88;;;14.90;99.90;;;;;;5121272;27;20433;-64
2022/10/28 06:13:37;;;;;;;14.38;8.02;;;14.80;99.90;;;;;;5112114;27;20062;-64
2022/10/28 06:16:03;;;;;;;17.15;8.23;;;14.90;99.90;;;;;;5093731;28;20467;-64
2022/10/28 06:18:29;;;;;;;17.77;8.73;;;14.90;99.90;;;;;;5106848;27;20075;-64
2022/10/28 06:20:56;;;;;;;13.40;8.18;;;14.90;99.90;;;;;;5132850;27;20403;-62
2022/10/28 06:23:23;;;;;;;13.90;8.45;;;14.90;99.90;;;;;;5132758;27;20217;-63
2022/10/28 06:25:49;;;;;;;17.50;8.75;;;14.90;99.90;;;;;;5133221;27;20102;-63
2022/10/28 06:28:15;;;;;;;12.35;7.75;;;14.90;99.90;;;;;;5133001;27;20646;-63
2022/10/28 06:30:41;;;;;;;16.63;8.10;;;14.90;99.90;;;;;;5130354;27;20071;-62
2022/10/28 06:33:06;;;;;;;14.55;8.20;;;14.90;99.90;;;;;;5132734;27;20039;-62
2022/10/28 06:35:32;;;;;;;17.88;8.73;;;15.00;99.90;;;;;;5133069;27;20121;-63
2022/10/28 06:37:57;;;;;;;17.05;8.20;;;15.00;99.90;;;;;;5139482;27;20043;-63
2022/10/28 06:40:26;;;;;;;14.07;8.02;;;14.90;99.90;;;;;;5140730;27;20070;-63
2022/10/28 06:42:58;;;;;;;15.00;7.70;;;15.00;99.90;;;;;;5152034;27;20202;-63
2022/10/28 06:45:24;;;;;;;17.17;7.90;;;15.00;99.90;;;;;;5135210;27;20045;-64
2022/10/28 06:47:54;;;;;;;14.05;7.47;;;15.00;99.90;;;;;;5135055;27;20030;-64
2022/10/28 06:50:20;;;;;;;14.43;7.60;;;15.00;99.90;;;;;;5150338;27;20535;-63
2022/10/28 06:52:46;;;;;;;16.30;7.22;;;15.00;99.90;;;;;;5145082;27;20070;-64
2022/10/28 06:55:11;;;;;;;16.70;8.40;;;15.10;99.90;;;;;;5132590;27;20150;-63
2022/10/28 06:57:37;;;;;;;12.93;8.48;;;15.10;99.90;;;;;;5131355;27;20046;-62
2022/10/28 07:00:03;;;;;;;16.58;8.45;;;15.10;99.90;;;;;;5123269;27;20607;-63
2022/10/28 07:02:29;;;;;;;17.35;8.10;;;15.10;99.90;;;;;;5094188;28;20039;-63
2022/10/28 07:04:54;;;;;;;16.25;7.45;;;15.20;99.90;;;;;;5112861;27;20042;-63
2022/10/28 07:07:20;;;;;;;14.82;7.20;;;15.10;99.90;;;;;;5117022;27;20062;-63
2022/10/28 07:09:46;;;;;;;13.07;7.45;;;15.20;99.90;;;;;;5131005;27;20035;-63
2022/10/28 07:12:11;;;;;;;20.73;7.30;;;15.20;99.90;;;;;;5118640;27;20526;-63
2022/10/28 07:14:37;;;;;;;14.85;7.40;;;15.20;99.90;;;;;;5111103;27;20093;-63
2022/10/28 07:17:03;;;;;;;13.48;7.72;;;15.20;99.90;;;;;;5130344;27;20100;-62
2022/10/28 07:19:28;;;;;;;14.63;7.97;;;15.30;99.90;;;;;;5127581;27;20067;-64
2022/10/28 07:21:54;;;;;;;12.48;7.13;;;15.30;99.90;;;;;;5128094;27;20479;-63
2022/10/28 07:24:20;;;;;;;15.57;7.40;;;15.40;99.90;;;;;;5128367;27;20088;-64
2022/10/28 07:26:48;;;;;;;13.82;7.40;;;15.40;99.90;;;;;;5131745;27;20789;-62
2022/10/28 07:29:14;;;;;;;14.63;7.40;;;15.50;99.90;;;;;;5129655;27;20039;-63
2022/10/28 07:31:40;;;;;;;15.55;7.10;;;15.50;99.90;;;;;;5125477;27;20053;-64
2022/10/28 07:34:05;;;;;;;18.25;7.35;;;15.60;99.90;;;;;;5130481;27;20035;-63
2022/10/28 07:36:31;;;;;;;17.73;7.50;;;15.70;99.90;;;;;;5131487;27;20088;-64
2022/10/28 07:38:57;;;;;;;15.82;7.43;;;15.70;99.90;;;;;;5146406;27;20118;-63
2022/10/28 07:41:22;;;;;;;14.88;7.13;;;15.80;99.90;;;;;;5124344;27;20039;-63
